Time;durP1;ratioP1;P1;durP2;ratioP2;P2;SDS_P1;SDS_P2;PMS_P1;PMS_P2;Temp;Humidity;BMP_temperature;BMP_pressure;BME280_temperature;BME280_humidity;BME280_pressure;Samples;Min_cycle;Max_cycle;Signal;HPM_P1;HPM_P2
2023/06/10 00:01:59;;;;;;;6.20;4.30;;;;;;;16.97;100.00;100121.67;181177;1253;45929;-58
2023/06/10 00:06:05;;;;;;;8.00;4.40;;;;;;;16.94;100.00;100122.73;181019;1254;58509;-58
2023/06/10 00:10:21;;;;;;;;;;;;;;;16.96;100.00;100122.31;181170;1254;44568;-59
2023/06/10 00:14:25;;;;;;;8.80;5.20;;;;;;;16.85;100.00;100125.64;181142;1256;44772;-58
2023/06/10 00:18:30;;;;;;;9.80;3.80;;;;;;;16.78;100.00;100121.82;181093;1254;45104;-59
2023/06/10 00:22:35;;;;;;;5.70;4.70;;;;;;;16.77;100.00;100118.82;181148;1254;44774;-59
2023/06/10 00:26:40;;;;;;;5.60;3.60;;;;;;;16.78;100.00;100117.65;181058;1255;58638;-59
2023/06/10 00:30:44;;;;;;;7.20;4.00;;;;;;;16.77;100.00;100119.80;180959;1254;45884;-59
2023/06/10 00:34:48;;;;;;;14.90;5.50;;;;;;;16.76;100.00;100122.89;181049;1254;45977;-60
2023/06/10 00:39:18;;;;;;;5.20;3.20;;;;;;;16.74;100.00;100121.55;180892;1254;44980;-59
2023/06/10 00:43:22;;;;;;;12.90;3.50;;;;;;;16.70;100.00;100121.44;181173;1254;45727;-57
2023/06/10 00:47:30;;;;;;;5.20;4.10;;;;;;;16.73;100.00;100116.09;181267;1257;58621;-57
2023/06/10 00:51:34;;;;;;;7.00;4.30;;;;;;;16.72;100.00;100117.98;181213;1253;45961;-57
2023/06/10 00:55:42;;;;;;;3.80;3.30;;;;;;;16.66;100.00;100118.64;181212;1254;43809;-57
2023/06/10 01:00:38;;;;;;;5.30;4.10;;;;;;;16.65;100.00;100115.33;181031;1254;44379;-57
2023/06/10 01:04:41;;;;;;;8.20;4.40;;;;;;;16.66;100.00;100121.97;181020;1254;43793;-57
2023/06/10 01:09:10;;;;;;;6.00;3.80;;;;;;;16.67;100.00;100119.72;181129;1254;58901;-57
2023/06/10 01:13:23;;;;;;;8.60;3.60;;;;;;;16.67;100.00;100126.02;181306;1253;43530;-57
2023/06/10 01:17:31;;;;;;;5.20;3.70;;;;;;;16.66;100.00;100126.46;180885;1258;44661;-57
2023/06/10 01:21:38;;;;;;;8.10;4.20;;;;;;;16.66;100.00;100123.95;181182;1253;44885;-57
2023/06/10 01:26:15;;;;;;;12.30;4.90;;;;;;;16.62;100.00;100123.85;181094;1254;44640;-58
2023/06/10 01:30:33;;;;;;;12.50;5.80;;;;;;;16.52;100.00;100122.33;181208;1254;58276;-57
2023/06/10 01:34:39;;;;;;;21.70;5.60;;;;;;;16.46;100.00;100122.86;180973;1253;46016;-57
2023/06/10 01:38:48;;;;;;;13.40;4.70;;;;;;;16.39;100.00;100122.46;181046;1254;43765;-57
2023/06/10 01:42:52;;;;;;;13.10;6.40;;;;;;;16.29;100.00;100121.95;181153;1253;43995;-56
2023/06/10 01:46:56;;;;;;;9.80;5.80;;;;;;;16.20;100.00;100119.46;181226;1257;44661;-57
2023/06/10 01:51:00;;;;;;;10.40;4.80;;;;;;;16.16;100.00;100117.16;181137;1254;59460;-57
2023/06/10 01:55:35;;;;;;;10.90;5.90;;;;;;;16.16;100.00;100119.64;180992;1253;43811;-56
2023/06/10 01:59:39;;;;;;;7.00;5.70;;;;;;;16.18;100.00;100121.88;181193;1254;46031;-57
2023/06/10 02:03:45;;;;;;;;;;;;;;;16.21;100.00;100124.40;180929;1255;43653;-56
2023/06/10 02:07:48;;;;;;;;;;;;;;;16.27;100.00;100128.90;181002;1254;43871;-58
2023/06/10 02:11:53;;;;;;;;;;;;;;;16.33;100.00;100129.21;181069;1254;59212;-58
2023/06/10 02:16:01;;;;;;;;;;;;;;;16.41;100.00;100135.88;181200;1254;45740;-57
2023/06/10 02:20:32;;;;;;;;;;;;;;;16.47;100.00;100139.30;180926;1254;44728;-57
2023/06/10 02:24:40;;;;;;;;;;;;;;;16.55;100.00;100143.50;180919;1254;44002;-57
2023/06/10 02:28:44;;;;;;;;;;;;;;;16.65;100.00;100142.95;180926;1257;45746;-58
2023/06/10 02:32:48;;;;;;;;;;;;;;;16.70;100.00;100145.73;181012;1257;57286;-57
2023/06/10 02:36:51;;;;;;;;;;;;;;;16.74;100.00;100144.48;180992;1258;44223;-57
2023/06/10 02:41:03;;;;;;;;;;;;;;;16.67;100.00;100145.06;181098;1256;43646;-57
2023/06/10 02:45:07;;;;;;;;;;;;;;;16.56;100.00;100147.33;181040;1254;45798;-58
2023/06/10 02:49:15;;;;;;;;;;;;;;;16.43;100.00;100149.90;181113;1254;43510;-58
2023/06/10 02:53:20;;;;;;;;;;;;;;;16.41;100.00;100153.40;180903;1254;58367;-58
2023/06/10 02:57:23;;;;;;;;;;;;;;;16.39;100.00;100153.39;181017;1254;44813;-58
2023/06/10 03:01:26;;;;;;;;;;;;;;;16.42;100.00;100151.85;180878;1259;43315;-59
2023/06/10 03:10:08;;;;;;;;;;;;;;;16.50;100.00;100158.19;181096;1254;43654;-58
2023/06/10 03:14:12;;;;;;;;;;;;;;;16.42;100.00;100159.70;180937;1255;58333;-58
2023/06/10 03:18:15;;;;;;;;;;;;;;;16.42;100.00;100158.27;180936;1256;45660;-59
2023/06/10 03:22:18;;;;;;;;;;;;;;;16.47;100.00;100164.96;180920;1256;45689;-58
2023/06/10 03:26:21;;;;;;;;;;;;;;;16.48;100.00;100167.09;180889;1256;45665;-59
2023/06/10 03:30:25;;;;;;;;;;;;;;;16.55;100.00;100166.96;180940;1255;43320;-58
2023/06/10 03:34:29;;;;;;;;;;;;;;;16.56;100.00;100166.45;181068;1254;57812;-58
2023/06/10 03:38:39;;;;;;;;;;;;;;;16.62;100.00;100166.35;180965;1256;43434;-60
2023/06/10 03:42:44;;;;;;;;;;;;;;;16.75;100.00;100165.98;180878;1255;44555;-58
2023/06/10 03:52:00;;;;;;;;;;;;;;;16.69;100.00;100162.14;180398;1260;46035;-59
2023/06/10 03:56:05;;;;;;;;;;;;;;;16.76;100.00;100163.63;180313;1263;58194;-58
2023/06/10 04:00:11;;;;;;;;;;;;;;;16.87;100.00;100167.34;180246;1260;44400;-59
2023/06/10 04:04:18;;;;;;;;;;;;;;;16.98;100.00;100165.23;180154;1262;44411;-58
2023/06/10 04:08:21;;;;;;;;;;;;;;;17.14;100.00;100164.24;180018;1262;44517;-59
2023/06/10 04:12:25;;;;;;;;;;;;;;;17.21;100.00;100160.65;180219;1260;44455;-56
2023/06/10 04:17:09;;;;;;;;;;;;;;;17.23;100.00;100159.33;180195;1260;58002;-58
2023/06/10 04:21:14;;;;;;;;;;;;;;;17.29;100.00;100157.36;180404;1260;43637;-59
2023/06/10 04:25:17;;;;;;;;;;;;;;;17.42;100.00;100158.16;180463;1260;44518;-59
2023/06/10 04:29:21;;;;;;;;;;;;;;;17.51;100.00;100155.42;180708;1254;332242;-58
2023/06/10 04:33:24;;;;;;;;;;;;;;;17.66;100.00;100160.64;181270;1254;43340;-58
2023/06/10 04:37:29;;;;;;;;;;;;;;;17.75;100.00;100164.09;181189;1254;57314;-58
2023/06/10 04:42:14;;;;;;;;;;;;;;;17.77;100.00;100163.98;181090;1254;43419;-58
2023/06/10 04:46:17;;;;;;;;;;;;;;;17.81;100.00;100163.89;181160;1254;44581;-58
2023/06/10 04:50:22;;;;;;;;;;;;;;;17.91;100.00;100166.27;181050;1254;43497;-58
2023/06/10 04:54:26;;;;;;;;;;;;;;;18.04;100.00;100171.71;181078;1254;43490;-57
2023/06/10 04:58:30;;;;;;;;;;;;;;;18.29;100.00;100176.27;181105;1254;57805;-59
2023/06/10 05:02:34;;;;;;;;;;;;;;;18.37;100.00;100182.14;181056;1254;46332;-60
2023/06/10 05:06:37;;;;;;;;;;;;;;;18.46;100.00;100188.30;181085;1254;44614;-58
2023/06/10 05:10:42;;;;;;;;;;;;;;;18.52;100.00;100194.91;181189;1253;43682;-59
2023/06/10 05:14:58;;;;;;;;;;;;;;;18.48;100.00;100197.08;181234;1254;44378;-59
2023/06/10 05:19:01;;;;;;;;;;;;;;;18.53;100.00;100202.73;181229;1254;58256;-59
2023/06/10 05:23:09;;;;;;;;;;;;;;;18.51;100.00;100205.63;181248;1254;45651;-59
2023/06/10 05:27:47;;;;;;;;;;;;;;;18.61;100.00;100212.86;181174;1254;43525;-59
2023/06/10 05:31:50;;;;;;;;;;;;;;;18.75;100.00;100200.49;180976;1254;44880;-58
2023/06/10 05:35:54;;;;;;;;;;;;;;;18.74;100.00;100199.70;180891;1254;44347;-59
2023/06/10 05:39:57;;;;;;;;;;;;;;;18.70;100.00;100208.79;180993;1254;58195;-59
2023/06/10 05:44:01;;;;;;;;;;;;;;;18.83;100.00;100222.25;181142;1254;43338;-59
2023/06/10 05:48:04;;;;;;;;;;;;;;;19.02;100.00;100222.66;181534;1254;43641;-59
2023/06/10 05:52:10;;;;;;;;;;;;;;;19.16;100.00;100222.19;181194;1253;43460;-59
2023/06/10 05:56:21;;;;;;;;;;;;;;;19.23;100.00;100220.71;181204;1253;43373;-58
2023/06/10 06:00:26;;;;;;;;;;;;;;;19.30;100.00;100218.90;181024;1254;57463;-59
2023/06/10 06:04:30;;;;;;;;;;;;;;;19.38;100.00;100216.79;180980;1254;44792;-59
2023/06/10 06:08:34;;;;;;;;;;;;;;;19.50;100.00;100211.27;181017;1254;43304;-59
2023/06/10 06:12:38;;;;;;;;;;;;;;;19.77;100.00;100207.80;181078;1254;45786;-59
2023/06/10 06:16:41;;;;;;;;;;;;;;;20.14;100.00;100212.02;180954;1254;45750;-59
2023/06/10 06:30:46;;;;;;;;;;;;;;;20.59;100.00;100229.27;143604;1261;84813;-59
2023/06/10 06:34:54;;;;;;;;;;;;;;;20.72;100.00;100237.25;180553;1258;44671;-59
2023/06/10 06:38:59;;;;;;;;;;;;;;;20.86;100.00;100241.81;180555;1258;43557;-59
2023/06/10 06:43:16;;;;;;;;;;;;;;;20.99;100.00;100240.88;180657;1258;60060;-59
2023/06/10 06:47:19;;;;;;;;;;;;;;;21.03;100.00;100251.23;180656;1257;45802;-60
2023/06/10 06:51:23;;;;;;;;;;;;;;;21.17;100.00;100256.49;180508;1257;44135;-59
2023/06/10 06:55:26;;;;;;;;;;;;;;;21.19;100.00;100260.34;180494;1258;43584;-58
2023/06/10 06:59:30;;;;;;;;;;;;;;;21.22;100.00;100263.73;180666;1257;45720;-59
2023/06/10 07:03:44;;;;;;;;;;;;;;;21.28;100.00;100263.20;180415;1258;58037;-59
2023/06/10 07:07:48;;;;;;;;;;;;;;;21.42;100.00;100266.86;180445;1258;45855;-59
2023/06/10 07:11:51;;;;;;;;;;;;;;;21.46;100.00;100266.84;180459;1258;45681;-59
2023/06/10 07:16:21;;;;;;;;;;;;;;;21.50;100.00;100269.67;180572;1257;43245;-59
2023/06/10 07:20:25;;;;;;;;;;;;;;;21.63;100.00;100272.88;180554;1258;45624;-59
2023/06/10 07:24:29;;;;;;;;;;;;;;;21.65;100.00;100272.73;180519;1257;57907;-60
2023/06/10 07:29:13;;;;;;;;;;;;;;;21.67;100.00;100278.66;180475;1257;43398;-59
2023/06/10 07:33:19;;;;;;;;;;;;;;;21.64;100.00;100283.65;180732;1256;44408;-59
2023/06/10 07:37:27;;;;;;;;;;;;;;;21.74;100.00;100288.56;180704;1256;45737;-59
2023/06/10 07:41:31;;;;;;;;;;;;;;;21.75;100.00;100286.04;180788;1254;43780;-59
2023/06/10 07:45:34;;;;;;;;;;;;;;;21.84;100.00;100287.42;180690;1256;57158;-59
2023/06/10 07:50:15;;;;;;;;;;;;;;;22.01;100.00;100287.30;180609;1254;45882;-59
2023/06/10 07:54:20;;;;;;;;;;;;;;;22.24;100.00;100288.09;180759;1255;44118;-59
2023/06/10 07:58:25;;;;;;;;;;;;;;;22.38;100.00;100288.92;180666;1256;45813;-59
2023/06/10 08:02:35;;;;;;;;;;;;;;;22.52;100.00;100299.63;180682;1256;43466;-59
2023/06/10 08:06:38;;;;;;;;;;;;;;;22.66;100.00;100305.74;180765;1256;58506;-60
2023/06/10 08:11:09;;;;;;;;;;;;;;;22.73;100.00;100303.38;180561;1256;45679;-60
2023/06/10 08:15:12;;;;;;;;;;;;;;;22.86;100.00;100298.02;180526;1256;43504;-60
2023/06/10 08:19:16;;;;;;;;;;;;;;;22.99;99.36;100298.52;180674;1256;43665;-60
2023/06/10 08:23:19;;;;;;;;;;;;;;;23.13;97.50;100302.87;180642;1256;45793;-60
2023/06/10 08:27:26;;;;;;;;;;;;;;;23.18;97.25;100305.50;180741;1256;57397;-60
2023/06/10 08:31:30;;;;;;;;;;;;;;;23.30;98.00;100305.83;180943;1255;44596;-61
2023/06/10 08:35:36;;;;;;;;;;;;;;;23.34;95.32;100312.50;180660;1256;44487;-60
2023/06/10 08:39:46;;;;;;;;;;;;;;;23.33;96.07;100313.00;180619;1257;45890;-60
2023/06/10 08:44:08;;;;;;;;;;;;;;;23.48;99.10;100312.15;181153;1257;45677;-60
2023/06/10 08:48:18;;;;;;;;;;;;;;;23.74;98.20;100310.35;181241;1255;58447;-60
2023/06/10 08:52:24;;;;;;;;;;;;;;;24.07;96.22;100311.36;181105;1255;45735;-60
2023/06/10 08:56:28;;;;;;;;;;;;;;;24.17;94.47;100314.42;180878;1256;43424;-61
2023/06/10 09:00:36;;;;;;;;;;;;;;;24.48;99.45;100310.30;180904;1255;44561;-60
2023/06/10 09:04:43;;;;;;;;;;;;;;;24.90;96.46;100304.92;180814;1256;45723;-60
2023/06/10 09:08:48;;;;;;;;;;;;;;;25.37;91.48;100300.55;180763;1257;58159;-60
2023/06/10 09:12:51;;;;;;;;;;;;;;;25.67;92.06;100295.54;180809;1256;43697;-60
2023/06/10 09:16:57;;;;;;;;;;;;;;;25.78;88.67;100296.30;180806;1256;43734;-60
2023/06/10 09:21:02;;;;;;;;;;;;;;;26.08;89.69;100291.51;180797;1256;43883;-60
2023/06/10 09:25:09;;;;;;;;;;;;;;;26.36;86.28;100296.05;180686;1257;45737;-60
2023/06/10 09:29:12;;;;;;;;;;;;;;;26.36;85.00;100293.87;181053;1255;60201;-60
2023/06/10 09:38:49;;;;;;;;;;;;;;;26.35;85.86;100290.52;180867;1256;43572;-60
2023/06/10 09:42:55;;;;;;;;;;;;;;;26.38;82.99;100288.98;180873;1256;43722;-60
2023/06/10 09:47:00;;;;;;;;;;;;;;;26.54;84.59;100278.60;180815;1257;43660;-61
2023/06/10 09:51:10;;;;;;;;;;;;;;;26.78;83.27;100277.69;180801;1260;58087;-58
2023/06/10 09:55:13;;;;;;;;;;;;;;;26.94;79.67;100272.21;180762;1256;44732;-58
2023/06/10 10:03:58;;;;;;;;;;;;;;;27.02;77.29;100265.77;180945;1257;43332;-58
2023/06/10 10:08:01;;;;;;;;;;;;;;;26.98;74.65;100260.98;181127;1255;43531;-56
2023/06/10 10:12:08;;;;;;;;;;;;;;;27.01;72.76;100257.79;180882;1255;58214;-55
2023/06/10 10:46:49;;;;;;;;;;;;;;;27.75;70.29;100236.20;180511;1261;82679;-56
2023/06/10 10:50:57;;;;;;;;;;;;;;;27.87;69.73;100242.11;180213;1262;44785;-56
2023/06/10 10:55:01;;;;;;;;;;;;;;;27.93;72.35;100237.70;180286;1262;45752;-56
2023/06/10 10:59:06;;;;;;;;;;;;;;;28.00;70.46;100228.70;180408;1262;57439;-56
2023/06/10 11:03:19;;;;;;;;;;;;;;;28.10;72.00;100228.23;180287;1262;43441;-56
2023/06/10 11:07:32;;;;;;;;;;;;;;;28.21;70.62;100220.27;180499;1261;45702;-58
2023/06/10 11:11:48;;;;;;;;;;;;;;;28.26;70.89;100214.34;180363;1262;44643;-58
2023/06/10 11:15:58;;;;;;;;;;;;;;;28.21;69.72;100217.65;180361;1262;45430;-58
2023/06/10 11:20:07;;;;;;;;;;;;;;;27.88;66.17;100218.26;180420;1261;58212;-58
2023/06/10 11:24:14;;;;;;;;;;;;;;;27.57;65.83;100211.61;180433;1262;45708;-58
2023/06/10 11:28:57;;;;;;;;;;;;;;;27.34;65.98;100203.34;180367;1261;43343;-58
2023/06/10 11:33:00;;;;;;;;;;;;;;;27.22;66.04;100197.85;180385;1262;44717;-59
2023/06/10 11:37:18;;;;;;;;;;;;;;;27.15;64.03;100199.92;180337;1260;43511;-59
2023/06/10 11:41:21;;;;;;;;;;;;;;;27.13;65.40;100196.94;180313;1262;59304;-60
2023/06/10 11:45:26;;;;;;;;;;;;;;;27.30;68.73;100189.48;180313;1262;45808;-59
2023/06/10 11:49:29;;;;;;;;;;;;;;;27.57;64.47;100181.95;180221;1262;44489;-59
2023/06/10 11:53:33;;;;;;;;;;;;;;;27.80;60.77;100174.42;180229;1261;44427;-59
2023/06/10 11:57:42;;;;;;;;;;;;;;;28.05;59.62;100169.86;180217;1262;43699;-60
2023/06/10 12:01:46;;;;;;;;;;;;;;;28.22;54.58;100167.77;180102;1262;57189;-59
2023/06/10 12:05:57;;;;;;;;;;;;;;;28.38;55.76;100169.42;180396;1262;43327;-59
2023/06/10 12:10:03;;;;;;;;;;;;;;;28.48;51.87;100169.20;180293;1262;43560;-60
2023/06/10 12:14:47;;;;;;;;;;;;;;;28.58;50.37;100174.52;180239;1262;43646;-59
2023/06/10 12:19:09;;;;;;;;;;;;;;;28.55;49.69;100178.63;180433;1260;43287;-60
2023/06/10 12:23:13;;;;;;;;;;;;;;;28.40;49.31;100172.84;180511;1261;57312;-60
2023/06/10 12:27:18;;;;;;;;;;;;;;;28.36;48.86;100170.77;180407;1262;45732;-60
2023/06/10 12:31:30;;;;;;;;;;;;;;;28.46;47.35;100172.34;180336;1262;44402;-60
2023/06/10 12:35:48;;;;;;;;;;;;;;;28.29;47.52;100171.84;180371;1263;43715;-60
2023/06/10 12:39:56;;;;;;;;;;;;;;;28.22;48.63;100165.48;180349;1262;45828;-59
2023/06/10 12:44:26;;;;;;;;;;;;;;;28.35;49.99;100157.38;180383;1262;58781;-60
2023/06/10 12:48:29;;;;;;;;;;;;;;;28.53;48.55;100154.58;180566;1261;43413;-61
2023/06/10 12:52:34;;;;;;;;;;;;;;;28.72;48.52;100154.53;180315;1262;43373;-59
2023/06/10 12:56:37;;;;;;;;;;;;;;;28.61;47.03;100154.04;180406;1262;43357;-59
2023/06/10 13:00:42;;;;;;;;;;;;;;;28.51;46.90;100150.48;180395;1263;43351;-59
2023/06/10 13:05:13;;;;;;;;;;;;;;;28.56;47.54;100141.10;180229;1263;58620;-59
2023/06/10 13:09:19;;;;;;;;;;;;;;;28.65;46.27;100134.88;180266;1261;45697;-60
2023/06/10 13:13:22;;;;;;;;;;;;;;;28.72;47.23;100145.56;180205;1261;43694;-60
2023/06/10 13:17:35;;;;;;;;;;;;;;;28.81;46.73;100143.90;180371;1262;45717;-60
2023/06/10 13:21:40;;;;;;;;;;;;;;;28.88;45.92;100140.01;180368;1261;43388;-60
2023/06/10 13:25:44;;;;;;;;;;;;;;;28.84;44.81;100140.23;180346;1262;57515;-61
2023/06/10 13:29:48;;;;;;;;;;;;;;;28.78;44.62;100134.83;180326;1262;43844;-61
2023/06/10 13:33:52;;;;;;;;;;;;;;;28.77;45.12;100140.40;180500;1260;43540;-61
2023/06/10 13:37:55;;;;;;;;;;;;;;;28.79;45.18;100143.11;180575;1261;45835;-61
2023/06/10 13:42:00;;;;;;;;;;;;;;;28.70;44.77;100144.05;180433;1262;45679;-61
2023/06/10 13:46:03;;;;;;;;;;;;;;;28.68;45.24;100148.06;180309;1262;57144;-61
2023/06/10 13:50:07;;;;;;;;;;;;;;;28.65;45.43;100146.61;180479;1260;43963;-61
2023/06/10 13:54:14;;;;;;;;;;;;;;;28.60;45.00;100147.17;180438;1261;43325;-61
2023/06/10 13:58:19;;;;;;;;;;;;;;;28.62;45.53;100151.48;180405;1262;45874;-61
2023/06/10 14:02:25;;;;;;;;;;;;;;;28.71;44.67;100146.37;180409;1260;43264;-61
2023/06/10 14:11:11;;;;;;;;;;;;;;;28.92;42.83;100143.69;180281;1262;45826;-61
2023/06/10 14:15:15;;;;;;;;;;;;;;;29.05;44.77;100144.75;180440;1261;43372;-61
2023/06/10 14:19:21;;;;;;;;;;;;;;;29.05;43.77;100146.39;180310;1265;46375;-61
2023/06/10 14:23:25;;;;;;;;;;;;;;;28.94;42.95;100150.40;180316;1262;44930;-61
2023/06/10 14:27:29;;;;;;;;;;;;;;;28.88;42.73;100141.66;180289;1260;57299;-61
2023/06/10 14:31:49;;;;;;;;;;;;;;;28.98;42.56;100140.36;180313;1262;43537;-61
2023/06/10 14:35:52;;;;;;;;;;;;;;;29.08;41.94;100142.81;180359;1261;43393;-62
2023/06/10 14:39:57;;;;;;;;;;;;;;;29.05;41.05;100141.30;180353;1262;44722;-61
2023/06/10 14:44:03;;;;;;;;;;;;;;;28.95;40.47;100147.23;180345;1262;44618;-61
2023/06/10 14:48:07;;;;;;;;;;;;;;;28.88;39.63;100139.36;180141;1267;58042;-60
2023/06/10 14:52:11;;;;;;;;;;;;;;;28.99;40.80;100139.20;180309;1260;44704;-60
2023/06/10 14:56:14;;;;;;;;;;;;;;;29.12;41.85;100141.72;180336;1263;43424;-61
2023/06/10 15:00:23;;;;;;;;;;;;;;;29.14;40.71;100143.12;180527;1262;43308;-61
2023/06/10 15:04:28;;;;;;;;;;;;;;;29.16;40.47;100135.23;180356;1262;43581;-61
2023/06/10 15:08:31;;;;;;;;;;;;;;;29.19;41.46;100136.94;180199;1262;58194;-61
2023/06/10 15:12:35;;;;;;;;;;;;;;;29.16;40.27;100134.61;180283;1261;43458;-61
2023/06/10 15:16:41;;;;;;;;;;;;;;;29.06;40.94;100133.20;180311;1262;45670;-61
2023/06/10 15:20:44;;;;;;;;;;;;;;;28.92;40.77;100137.73;180304;1262;44875;-61
2023/06/10 15:24:48;;;;;;;;;;;;;;;28.93;41.39;100136.92;180341;1261;45719;-60
2023/06/10 15:28:52;;;;;;;;;;;;;;;28.96;40.78;100145.77;180359;1262;56902;-61
2023/06/10 15:32:59;;;;;;;;;;;;;;;28.98;41.36;100145.80;180325;1262;44476;-61
2023/06/10 15:37:05;;;;;;;;;;;;;;;28.95;41.77;100147.46;180325;1262;44505;-63
2023/06/10 15:41:08;;;;;;;;;;;;;;;28.86;40.47;100148.05;180335;1263;45860;-62
2023/06/10 15:45:12;;;;;;;;;;;;;;;28.80;40.68;100140.98;180344;1263;43543;-60
2023/06/10 15:53:48;;;;;;;;;;;;;;;28.83;42.30;100142.63;180407;1261;45929;-60
2023/06/10 15:57:54;;;;;;;;;;;;;;;28.69;41.00;100146.11;180413;1261;44636;-60
2023/06/10 16:01:57;;;;;;;;;;;;;;;28.59;40.77;100146.52;180283;1265;43327;-61
2023/06/10 16:06:02;;;;;;;;;;;;;;;28.47;41.02;100149.72;180311;1262;44787;-61
2023/06/10 16:10:06;;;;;;;;;;;;;;;28.26;40.43;100156.63;180273;1262;58106;-61
2023/06/10 16:14:10;;;;;;;;;;;;;;;28.13;41.84;100153.29;180239;1262;44138;-61
2023/06/10 16:18:13;;;;;;;;;;;;;;;27.96;41.86;100156.36;180283;1261;43275;-60
2023/06/10 16:22:17;;;;;;;;;;;;;;;27.84;43.24;100161.59;180078;1262;45712;-60
2023/06/10 16:31:50;;;;;;;;;;;;;;;27.57;43.15;100163.42;178460;1261;2402684;-60
2023/06/10 16:35:59;;;;;;;;;;;;;;;27.42;44.13;100162.33;180489;1262;44819;-61
2023/06/10 16:40:02;;;;;;;;;;;;;;;27.22;43.38;100160.48;180529;1262;43275;-60
2023/06/10 16:44:06;;;;;;;;;;;;;;;27.14;44.59;100164.24;180477;1262;44253;-61
2023/06/10 16:48:38;;;;;;;;;;;;;;;27.07;45.86;100167.70;180265;1263;44165;-60
2023/06/10 16:52:42;;;;;;;;;;;;;;;26.88;44.71;100166.29;180238;1263;58490;-60
2023/06/10 16:56:48;;;;;;;;;;;;;;;26.74;44.55;100170.58;180227;1262;44248;-61
2023/06/10 17:00:51;;;;;;;;;;;;;;;26.59;44.82;100175.30;180191;1262;45882;-60
2023/06/10 17:04:55;;;;;;;;;;;;;;;26.44;44.30;100180.33;180280;1262;43306;-61
2023/06/10 17:08:59;;;;;;;;;;;;;;;26.32;45.14;100181.17;180285;1262;44723;-60
2023/06/10 17:13:29;;;;;;;;;;;;;;;26.15;43.80;100187.48;180292;1262;57831;-60
2023/06/10 17:17:34;;;;;;;;;;;;;;;26.03;44.95;100186.01;180170;1263;44465;-61
2023/06/10 17:21:39;;;;;;;;;;;;;;;25.89;44.76;100198.05;180231;1262;44646;-60
2023/06/10 17:30:55;;;;;;;;;;;;;;;25.54;44.58;100209.34;180211;1265;43471;-60
2023/06/10 17:34:59;;;;;;;;;;;;;;;25.38;45.42;100214.93;180363;1265;59275;-60
2023/06/10 17:39:32;;;;;;;;;;;;;;;25.19;44.68;100219.55;180111;1265;46002;-60
2023/06/10 17:43:38;;;;;;;;;;;;;;;25.06;44.23;100224.50;180359;1261;43347;-59
2023/06/10 17:48:47;;;;;;;;;;;;;;;24.99;44.23;100233.21;179674;1267;43341;-59
2023/06/10 17:52:56;;;;;;;;;;;;;;;24.91;44.97;100239.87;179774;1268;44500;-59
2023/06/10 17:56:59;;;;;;;;;;;;;;;24.82;44.46;100248.61;179583;1268;57072;-61
2023/06/10 18:01:05;;;;;;;;;;;;;;;24.74;44.96;100250.45;179919;1265;45704;-61
2023/06/10 18:05:09;;;;;;;;;;;;;;;24.61;43.70;100255.77;180347;1260;43385;-61
2023/06/10 18:09:16;;;;;;;;;;;;;;;24.53;43.81;100261.58;180381;1261;44728;-61
2023/06/10 18:13:19;;;;;;;;;;;;;;;24.40;43.57;100262.84;180144;1264;45733;-61
2023/06/10 18:17:49;;;;;;;;;;;;;;;24.27;43.85;100269.14;180176;1262;58883;-60
2023/06/10 18:21:53;;;;;;;;;;;;;;;24.13;44.40;100273.30;180285;1263;43473;-60
2023/06/10 18:25:56;;;;;;;;;;;;;;;23.96;44.25;100273.35;180099;1261;44850;-60
2023/06/10 18:30:00;;;;;;;;;;;;;;;23.76;44.43;100274.84;180165;1262;44563;-61
2023/06/10 18:34:04;;;;;;;;;;;;;;;23.58;44.77;100281.05;180155;1262;45701;-61
2023/06/10 18:38:07;;;;;;;;;;;;;;;23.38;45.24;100286.11;180256;1260;58194;-60
2023/06/10 18:42:11;;;;;;;;;;;;;;;23.22;45.54;100286.77;179841;1262;45695;-60
2023/06/10 18:46:15;;;;;;;;;;;;;;;23.05;45.80;100291.23;179757;1261;44365;-59
2023/06/10 18:50:21;;;;;;;;;;;;;;;22.84;46.49;100289.92;179770;1262;43971;-60
2023/06/10 18:54:24;;;;;;;;;;;;;;;22.67;46.84;100299.00;179985;1262;45754;-60
2023/06/10 18:58:37;;;;;;;;;;;;;;;22.50;47.18;100298.58;179843;1264;59908;-60
2023/06/10 19:02:58;;;;;;;;;;;;;;;22.30;48.05;100308.77;179135;1272;43666;-60
2023/06/10 19:07:04;;;;;;;;;;;;;;;22.10;48.57;100315.71;179558;1267;43977;-60
2023/06/10 19:11:39;;;;;;;;;;;;;;;21.89;48.90;100321.69;179359;1269;45832;-60
2023/06/10 19:15:43;;;;;;;;;;;;;;;21.56;49.31;100325.64;179513;1272;43330;-60
2023/06/10 19:19:49;;;;;;;;;;;;;;;21.23;49.85;100327.65;179750;1264;58499;-60
2023/06/10 19:24:18;;;;;;;;;;;;;;;20.95;50.05;100339.73;180183;1261;43585;-60
2023/06/10 19:28:22;;;;;;;;;;;;;;;20.66;50.71;100342.44;180113;1260;45817;-60
2023/06/10 19:32:26;;;;;;;;;;;;;;;20.45;51.00;100348.98;180210;1260;43899;-60
2023/06/10 19:36:30;;;;;;;;;;;;;;;20.26;51.41;100352.14;180203;1260;43308;-59
2023/06/10 19:40:34;;;;;;;;;;;;;;;20.08;51.90;100355.41;180438;1262;58914;-60
2023/06/10 19:44:37;;;;;;;;;;;;;;;19.95;52.27;100359.73;180510;1263;45855;-61
2023/06/10 19:48:40;;;;;;;;;;;;;;;19.81;52.72;100359.89;180267;1260;43507;-60
2023/06/10 19:52:48;;;;;;;;;;;;;;;19.65;52.67;100364.98;180342;1264;45624;-61
2023/06/10 19:56:52;;;;;;;;;;;;;;;19.54;52.92;100365.45;180149;1260;43289;-61
2023/06/10 20:00:56;;;;;;;;;;;;;;;19.44;53.18;100368.21;180090;1265;60585;-60
2023/06/10 20:05:01;;;;;;;;;;;;;;;19.36;53.43;100373.51;180303;1262;43444;-60
2023/06/10 20:09:15;;;;;;;;;;;;;;;19.30;53.60;100373.46;180300;1262;43292;-60
2023/06/10 20:13:18;;;;;;;;;;;;;;;19.23;53.97;100379.98;180254;1264;45685;-60
2023/06/10 20:17:22;;;;;;;;;;;;;;;19.15;53.94;100390.08;180117;1263;43512;-60
2023/06/10 20:21:25;;;;;;;;;;;;;;;19.05;54.53;100392.54;180276;1263;59332;-60
2023/06/10 20:25:34;;;;;;;;;;;;;;;18.93;54.42;100395.80;180165;1260;44713;-60
2023/06/10 20:29:38;;;;;;;;;;;;;;;18.80;54.52;100396.11;180118;1260;43520;-59
2023/06/10 20:33:41;;;;;;;;;;;;;;;18.71;54.45;100401.45;180277;1263;43424;-59
2023/06/10 20:37:46;;;;;;;;;;;;;;;18.67;54.86;100400.08;180252;1263;43229;-59
2023/06/10 20:41:50;;;;;;;;;;;;;;;18.62;54.97;100396.54;180306;1260;59253;-60
2023/06/10 20:45:56;;;;;;;;;;;;;;;18.56;54.07;100401.98;180149;1264;43442;-60
2023/06/10 20:50:03;;;;;;;;;;;;;;;18.57;53.27;100400.16;180179;1262;43293;-59
2023/06/10 20:54:06;;;;;;;;;;;;;;;18.59;53.16;100396.32;180185;1260;44718;-60
2023/06/10 20:58:20;;;;;;;;;;;;;;;18.61;53.17;100396.29;180128;1261;43344;-60
2023/06/10 21:02:24;;;;;;;;;;;;;;;18.61;53.09;100394.83;180199;1262;59397;-60
2023/06/10 21:06:29;;;;;;;;;;;;;;;18.59;53.09;100397.57;180187;1263;44974;-60
2023/06/10 21:10:32;;;;;;;;;;;;;;;18.56;53.19;100400.65;180187;1260;45634;-60
2023/06/10 21:14:36;;;;;;;;;;;;;;;18.50;53.71;100398.55;180201;1263;44522;-60
2023/06/10 21:18:45;;;;;;;;;;;;;;;18.43;53.89;100394.54;180235;1263;43532;-60
2023/06/10 21:22:49;;;;;;;;;;;;;;;18.36;54.25;100393.66;180093;1262;58341;-60
2023/06/10 21:26:53;;;;;;;;;;;;;;;18.24;54.90;100396.44;180148;1262;45801;-60
2023/06/10 21:30:57;;;;;;;;;;;;;;;18.13;55.18;100393.91;180194;1260;43839;-60
2023/06/10 21:35:01;;;;;;;;;;;;;;;17.99;56.16;100395.07;180020;1262;44734;-60
2023/06/10 21:39:05;;;;;;;;;;;;;;;17.88;55.86;100394.48;180276;1260;45730;-60
2023/06/10 21:43:15;;;;;;;;;;;;;;;17.79;56.03;100396.92;180200;1262;58648;-60
2023/06/10 21:47:48;;;;;;;;;;;;;;;17.68;56.76;100398.64;180130;1262;45735;-60
2023/06/10 21:51:52;;;;;;;;;;;;;;;17.52;57.61;100399.19;180106;1262;45702;-60
2023/06/10 21:56:01;;;;;;;;;;;;;;;17.38;57.93;100400.67;180138;1260;45782;-60
2023/06/10 22:00:10;;;;;;;;;;;;;;;17.25;59.08;100401.95;180204;1260;45791;-61